createdAt,value
2018-07-03T00:00:19.821Z,0
2018-07-03T00:01:28.680Z,0
2018-07-03T00:02:37.543Z,0
2018-07-03T00:03:46.557Z,0
2018-07-03T00:04:55.700Z,0
2018-07-03T00:06:04.840Z,0
2018-07-03T00:07:14.253Z,0
2018-07-03T00:08:23.117Z,0
2018-07-03T00:09:31.978Z,0
2018-07-03T00:10:40.839Z,0
2018-07-03T00:11:49.704Z,0
2018-07-03T00:12:58.846Z,0
2018-07-03T00:14:07.710Z,0
2018-07-03T00:15:16.949Z,0
2018-07-03T00:16:26.367Z,0
2018-07-03T00:17:35.228Z,0
2018-07-03T00:18:44.093Z,0
2018-07-03T00:19:52.951Z,0
2018-07-03T00:21:01.864Z,0
2018-07-03T00:22:10.725Z,0
2018-07-03T00:23:19.861Z,0
2018-07-03T00:24:28.725Z,0
2018-07-03T00:25:37.863Z,0
2018-07-03T00:26:46.724Z,0
2018-07-03T00:27:55.585Z,0
2018-07-03T00:29:04.450Z,0
2018-07-03T00:30:13.311Z,0
2018-07-03T00:31:22.171Z,0
2018-07-03T00:32:31.031Z,0
2018-07-03T00:33:39.892Z,0
2018-07-03T00:34:48.755Z,0
2018-07-03T00:35:57.617Z,0
2018-07-03T00:37:06.756Z,0
2018-07-03T00:38:15.994Z,0
2018-07-03T00:39:24.855Z,0
2018-07-03T00:40:33.716Z,0
2018-07-03T00:41:42.579Z,0
2018-07-03T00:42:51.719Z,0
2018-07-03T00:44:00.577Z,0
2018-07-03T00:45:09.442Z,0
2018-07-03T00:46:18.312Z,0
2018-07-03T00:47:27.172Z,0
2018-07-03T00:48:36.034Z,0
2018-07-03T00:49:44.898Z,0
2018-07-03T00:50:54.036Z,0
2018-07-03T00:52:02.952Z,0
2018-07-03T00:53:12.141Z,0
2018-07-03T00:54:20.996Z,0
2018-07-03T00:55:30.189Z,0
2018-07-03T00:56:39.051Z,0
2018-07-03T00:57:47.908Z,0
2018-07-03T00:58:56.770Z,0
2018-07-03T01:00:06.185Z,0
2018-07-03T01:01:15.097Z,0
2018-07-03T01:02:23.956Z,0
2018-07-03T01:03:32.816Z,0
2018-07-03T01:04:41.682Z,0
2018-07-03T01:05:50.543Z,0
2018-07-03T01:06:59.554Z,0
2018-07-03T01:08:08.692Z,0
2018-07-03T01:09:17.554Z,0
2018-07-03T01:10:26.413Z,0
2018-07-03T01:11:35.272Z,0
2018-07-03T01:12:44.392Z,0
2018-07-03T01:13:53.257Z,0
2018-07-03T01:15:02.397Z,0
2018-07-03T01:16:11.255Z,0
2018-07-03T01:17:20.117Z,0
2018-07-03T01:18:29.127Z,0
2018-07-03T01:19:38.543Z,0
2018-07-03T01:20:47.405Z,0
2018-07-03T01:21:56.539Z,0
2018-07-03T01:23:05.677Z,0
2018-07-03T01:24:14.691Z,0
2018-07-03T01:25:23.549Z,0
2018-07-03T01:26:32.411Z,0
2018-07-03T01:27:41.325Z,0
2018-07-03T01:28:50.182Z,0
2018-07-03T01:29:59.394Z,0
2018-07-03T01:31:08.256Z,0
2018-07-03T01:32:17.118Z,0
2018-07-03T01:33:26.527Z,0
2018-07-03T01:34:35.392Z,0
2018-07-03T01:35:44.861Z,0
2018-07-03T01:36:53.721Z,0
2018-07-03T01:38:02.858Z,0
2018-07-03T01:39:11.723Z,0
2018-07-03T01:40:20.586Z,0
2018-07-03T01:41:29.828Z,0
2018-07-03T01:42:38.686Z,0
2018-07-03T01:43:47.547Z,0
2018-07-03T01:44:56.685Z,0
2018-07-03T01:46:05.542Z,0
2018-07-03T01:47:14.755Z,0
2018-07-03T01:48:23.895Z,0
2018-07-03T01:49:32.755Z,0
2018-07-03T01:50:41.617Z,0
2018-07-03T01:51:50.475Z,0
2018-07-03T01:52:59.484Z,0
2018-07-03T01:54:08.623Z,0
2018-07-03T01:55:17.485Z,0
2018-07-03T01:56:26.344Z,0
2018-07-03T01:57:35.481Z,0
2018-07-03T01:58:44.490Z,0
2018-07-03T01:59:53.627Z,0
2018-07-03T02:01:02.489Z,0
2018-07-03T02:02:11.622Z,0
2018-07-03T02:03:20.484Z,0
2018-07-03T02:04:29.394Z,0
2018-07-03T02:05:38.255Z,0
2018-07-03T02:06:47.118Z,0
2018-07-03T02:07:55.978Z,0
2018-07-03T02:09:04.838Z,0
2018-07-03T02:10:13.849Z,0
2018-07-03T02:11:23.035Z,0
2018-07-03T02:12:31.896Z,0
2018-07-03T02:13:40.759Z,0
2018-07-03T02:14:49.619Z,0
2018-07-03T02:15:58.734Z,0
2018-07-03T02:17:07.593Z,0
2018-07-03T02:18:16.456Z,0
2018-07-03T02:19:25.313Z,0
2018-07-03T02:20:34.175Z,0
2018-07-03T02:21:43.131Z,0
2018-07-03T02:22:51.995Z,0
2018-07-03T02:24:00.855Z,4
2018-07-03T02:25:09.714Z,4
2018-07-03T02:26:18.578Z,0
2018-07-03T02:27:27.768Z,0
2018-07-03T02:28:36.630Z,4
2018-07-03T02:29:45.768Z,4
2018-07-03T02:30:54.909Z,4
2018-07-03T02:32:04.063Z,4
2018-07-03T02:33:13.203Z,8
2018-07-03T02:34:22.631Z,8
2018-07-03T02:35:32.056Z,4
2018-07-03T02:36:40.915Z,8
2018-07-03T02:37:50.056Z,12
2018-07-03T02:38:59.854Z,12
2018-07-03T02:40:08.973Z,12
2018-07-03T02:41:18.123Z,16
2018-07-03T02:42:26.984Z,16
2018-07-03T02:43:36.143Z,20
2018-07-03T02:44:45.331Z,20
2018-07-03T02:45:54.746Z,24
2018-07-03T02:47:03.900Z,24
2018-07-03T02:48:13.309Z,32
2018-07-03T02:49:22.732Z,36
2018-07-03T02:50:32.151Z,40
2018-07-03T02:51:41.017Z,44
2018-07-03T02:52:50.155Z,48
2018-07-03T02:53:59.022Z,52
2018-07-03T02:55:07.883Z,60
2018-07-03T02:56:16.844Z,64
2018-07-03T02:57:25.979Z,72
2018-07-03T02:58:34.852Z,80
2018-07-03T02:59:44.265Z,84
2018-07-03T03:00:53.414Z,92
2018-07-03T03:02:02.426Z,104
2018-07-03T03:03:11.561Z,112
2018-07-03T03:04:20.712Z,120
2018-07-03T03:05:29.856Z,132
2018-07-03T03:06:39.328Z,140
2018-07-03T03:07:48.237Z,156
2018-07-03T03:08:57.390Z,164
2018-07-03T03:10:06.545Z,176
2018-07-03T03:11:15.405Z,188
2018-07-03T03:12:24.825Z,200
2018-07-03T03:13:33.968Z,216
2018-07-03T03:14:43.104Z,228
2018-07-03T03:15:52.522Z,244
2018-07-03T03:17:01.667Z,256
2018-07-03T03:18:10.530Z,268
2018-07-03T03:19:19.732Z,284
2018-07-03T03:20:29.151Z,304
2018-07-03T03:21:38.285Z,316
2018-07-03T03:22:47.422Z,332
2018-07-03T03:23:56.281Z,348
2018-07-03T03:25:05.145Z,364
2018-07-03T03:26:14.285Z,380
2018-07-03T03:27:23.146Z,396
2018-07-03T03:28:32.005Z,412
2018-07-03T03:29:40.866Z,432
2018-07-03T03:30:50.005Z,448
2018-07-03T03:31:58.866Z,464
2018-07-03T03:33:07.727Z,480
2018-07-03T03:34:16.586Z,496
2018-07-03T03:35:25.445Z,516
2018-07-03T03:36:34.405Z,532
2018-07-03T03:37:43.266Z,548
2018-07-03T03:38:52.122Z,564
2018-07-03T03:40:00.981Z,580
2018-07-03T03:41:10.125Z,600
2018-07-03T03:42:19.422Z,612
2018-07-03T03:43:28.280Z,632
2018-07-03T03:44:37.140Z,648
2018-07-03T03:45:46.006Z,664
2018-07-03T03:46:55.419Z,684
2018-07-03T03:48:04.529Z,700
2018-07-03T03:49:13.665Z,712
2018-07-03T03:50:22.808Z,732
2018-07-03T03:51:31.663Z,748
2018-07-03T03:52:40.523Z,760
2018-07-03T03:53:49.623Z,776
2018-07-03T03:54:58.813Z,788
2018-07-03T03:56:07.674Z,804
2018-07-03T03:57:16.814Z,820
2018-07-03T03:58:25.672Z,832
2018-07-03T03:59:35.010Z,844
2018-07-03T04:00:43.877Z,860
2018-07-03T04:01:53.012Z,872
2018-07-03T04:03:01.872Z,884
2018-07-03T04:04:10.734Z,896
2018-07-03T04:05:20.202Z,912
2018-07-03T04:06:29.340Z,928
2018-07-03T04:07:38.199Z,940
2018-07-03T04:08:47.066Z,952
2018-07-03T04:09:56.206Z,964
2018-07-03T04:11:05.118Z,976
2018-07-03T04:12:13.977Z,988
2018-07-03T04:13:22.836Z,1000
2018-07-03T04:14:31.703Z,1012
2018-07-03T04:15:40.568Z,1024
2018-07-03T04:16:49.426Z,1036
2018-07-03T04:17:58.286Z,1044
2018-07-03T04:19:07.144Z,1060
2018-07-03T04:20:16.004Z,1068
2018-07-03T04:21:24.866Z,1080
2018-07-03T04:22:33.728Z,1092
2018-07-03T04:23:42.585Z,1104
2018-07-03T04:24:51.726Z,1116
2018-07-03T04:26:00.586Z,1124
2018-07-03T04:27:09.727Z,1136
2018-07-03T04:28:18.588Z,1144
2018-07-03T04:29:27.729Z,1152
2018-07-03T04:30:36.591Z,1160
2018-07-03T04:31:45.449Z,1172
2018-07-03T04:32:54.312Z,1184
2018-07-03T04:34:03.521Z,1192
2018-07-03T04:35:12.597Z,1196
2018-07-03T04:36:21.465Z,1216
2018-07-03T04:37:30.325Z,1220
2018-07-03T04:38:39.183Z,1232
2018-07-03T04:39:48.646Z,1236
2018-07-03T04:40:57.785Z,1244
2018-07-03T04:42:06.926Z,1252
2018-07-03T04:43:15.788Z,1264
2018-07-03T04:44:24.648Z,1268
2018-07-03T04:45:33.760Z,1280
2018-07-03T04:46:42.671Z,1288
2018-07-03T04:47:51.816Z,1292
2018-07-03T04:49:00.681Z,1300
2018-07-03T04:50:09.817Z,1316
2018-07-03T04:51:18.828Z,1324
2018-07-03T04:52:27.689Z,1332
2018-07-03T04:53:36.554Z,1348
2018-07-03T04:54:45.691Z,1352
2018-07-03T04:55:54.550Z,1348
2018-07-03T04:57:03.509Z,1356
2018-07-03T04:58:12.373Z,1432
2018-07-03T04:59:21.238Z,1420
2018-07-03T05:00:30.377Z,1400
2018-07-03T05:01:39.238Z,1420
2018-07-03T05:02:48.450Z,1444
2018-07-03T05:03:57.584Z,1432
2018-07-03T05:05:06.725Z,1424
2018-07-03T05:06:15.861Z,1540
2018-07-03T05:07:25.000Z,1420
2018-07-03T05:08:34.209Z,1428
2018-07-03T05:09:43.071Z,1432
2018-07-03T05:10:51.938Z,1468
2018-07-03T05:12:00.801Z,1424
2018-07-03T05:13:09.675Z,1432
2018-07-03T05:14:18.814Z,1464
2018-07-03T05:15:27.956Z,1436
2018-07-03T05:16:36.819Z,1452
2018-07-03T05:17:45.687Z,1472
2018-07-03T05:18:54.553Z,1452
2018-07-03T05:20:03.700Z,1464
2018-07-03T05:21:12.840Z,1480
2018-07-03T05:22:21.707Z,1452
2018-07-03T05:23:30.568Z,1480
2018-07-03T05:24:39.474Z,1480
2018-07-03T05:25:48.962Z,1488
2018-07-03T05:26:57.825Z,1472
2018-07-03T05:28:06.686Z,1500
2018-07-03T05:29:15.557Z,1512
2018-07-03T05:30:24.419Z,1492
2018-07-03T05:31:33.304Z,1516
2018-07-03T05:32:42.513Z,1524
2018-07-03T05:33:51.663Z,1508
2018-07-03T05:35:00.520Z,1516
2018-07-03T05:36:09.382Z,1532
2018-07-03T05:37:18.621Z,1536
2018-07-03T05:38:27.820Z,1544
2018-07-03T05:39:36.835Z,1556
2018-07-03T05:40:45.978Z,1564
2018-07-03T05:41:54.848Z,1576
2018-07-03T05:43:03.713Z,1588
2018-07-03T05:44:12.569Z,1596
2018-07-03T05:45:21.772Z,1616
2018-07-03T05:46:30.948Z,1616
2018-07-03T05:47:39.812Z,1620
2018-07-03T05:48:48.676Z,1632
2018-07-03T05:49:57.539Z,1624
2018-07-03T05:51:07.064Z,1624
2018-07-03T05:52:15.926Z,1624
2018-07-03T05:53:25.064Z,1620
2018-07-03T05:54:34.206Z,1620
2018-07-03T05:55:43.617Z,1628
2018-07-03T05:56:52.811Z,1612
2018-07-03T05:58:01.677Z,1612
2018-07-03T05:59:10.540Z,1608
2018-07-03T06:00:19.956Z,1608
2018-07-03T06:01:28.821Z,1600
2018-07-03T06:02:37.932Z,1604
2018-07-03T06:03:47.408Z,1596
2018-07-03T06:04:56.212Z,1584
2018-07-03T06:06:05.076Z,1576
2018-07-03T06:07:13.940Z,1564
2018-07-03T06:08:22.802Z,1568
2018-07-03T06:09:31.824Z,1572
2018-07-03T06:10:40.970Z,1572
2018-07-03T06:11:49.834Z,1584
2018-07-03T06:12:59.270Z,1588
2018-07-03T06:14:09.017Z,1576
2018-07-03T06:15:17.881Z,1572
2018-07-03T06:16:27.022Z,1576
2018-07-03T06:17:35.891Z,1584
2018-07-03T06:18:44.759Z,1580
2018-07-03T06:19:53.714Z,1580
2018-07-03T06:21:02.578Z,1584
2018-07-03T06:22:11.447Z,1592
2018-07-03T06:23:20.309Z,1604
2018-07-03T06:24:29.451Z,1636
2018-07-03T06:25:38.641Z,1664
2018-07-03T06:26:47.507Z,1688
2018-07-03T06:27:56.371Z,1704
2018-07-03T06:29:05.336Z,1740
2018-07-03T06:30:14.800Z,1776
2018-07-03T06:31:23.813Z,1804
2018-07-03T06:32:32.964Z,1840
2018-07-03T06:33:42.112Z,1884
2018-07-03T06:34:51.501Z,1928
2018-07-03T06:36:00.356Z,1964
2018-07-03T06:37:09.855Z,2008
2018-07-03T06:38:18.710Z,2040
2018-07-03T06:39:27.570Z,2080
2018-07-03T06:40:36.442Z,2116
2018-07-03T06:41:45.303Z,2156
2018-07-03T06:42:54.366Z,2208
2018-07-03T06:44:03.228Z,2272
2018-07-03T06:45:12.091Z,2352
2018-07-03T06:46:20.956Z,2440
2018-07-03T06:47:29.821Z,2524
2018-07-03T06:48:39.064Z,2604
2018-07-03T06:49:47.930Z,2704
2018-07-03T06:50:56.790Z,2828
2018-07-03T06:52:05.931Z,2968
2018-07-03T06:53:14.835Z,3124
2018-07-03T06:54:23.757Z,3292
2018-07-03T06:55:32.622Z,3472
2018-07-03T06:56:41.485Z,3672
2018-07-03T06:57:50.989Z,3884
2018-07-03T06:58:59.789Z,4096
2018-07-03T07:00:08.704Z,4312
2018-07-03T07:01:17.566Z,4524
2018-07-03T07:02:26.431Z,4732
2018-07-03T07:03:35.296Z,4920
2018-07-03T07:04:44.163Z,5088
2018-07-03T07:05:53.456Z,5260
2018-07-03T07:07:02.596Z,5428
2018-07-03T07:08:11.460Z,5596
2018-07-03T07:09:20.899Z,5748
2018-07-03T07:10:30.120Z,5852
2018-07-03T07:11:39.036Z,5952
2018-07-03T07:12:47.900Z,6096
2018-07-03T07:13:56.768Z,6372
2018-07-03T07:15:06.071Z,6648
2018-07-03T07:16:14.888Z,6860
2018-07-03T07:17:24.380Z,7056
2018-07-03T07:18:33.241Z,7184
2018-07-03T07:19:42.383Z,7276
2018-07-03T07:20:51.249Z,7340
2018-07-03T07:22:00.391Z,7412
2018-07-03T07:23:09.422Z,7484
2018-07-03T07:24:18.584Z,7496
2018-07-03T07:25:27.449Z,7464
2018-07-03T07:26:36.314Z,7376
2018-07-03T07:27:45.182Z,7348
2018-07-03T07:28:54.496Z,7372
2018-07-03T07:30:03.364Z,7408
2018-07-03T07:31:12.510Z,7376
2018-07-03T07:32:21.660Z,7292
2018-07-03T07:33:31.072Z,7308
2018-07-03T07:34:39.993Z,7380
2018-07-03T07:35:49.446Z,7488
2018-07-03T07:36:58.288Z,7608
2018-07-03T07:38:07.155Z,7724
2018-07-03T07:39:16.309Z,7820
2018-07-03T07:40:25.505Z,7952
2018-07-03T07:41:34.421Z,8100
2018-07-03T07:42:43.628Z,8152
2018-07-03T07:43:52.468Z,8212
2018-07-03T07:45:01.341Z,8228
2018-07-03T07:46:10.532Z,8252
2018-07-03T07:47:19.399Z,8304
2018-07-03T07:48:28.265Z,8384
2018-07-03T07:49:37.135Z,8480
2018-07-03T07:50:46.001Z,8544
2018-07-03T07:51:54.921Z,8580
2018-07-03T07:53:03.790Z,8616
2018-07-03T07:54:12.933Z,8620
2018-07-03T07:55:21.797Z,8540
2018-07-03T07:56:31.033Z,8404
2018-07-03T07:57:39.939Z,8168
2018-07-03T07:58:48.826Z,7848
2018-07-03T07:59:57.981Z,7632
2018-07-03T08:01:12.717Z,7392
2018-07-03T08:02:21.586Z,7208
2018-07-03T08:03:30.501Z,7016
2018-07-03T08:04:41.052Z,6748
2018-07-03T08:05:54.688Z,6500
2018-07-03T08:07:07.341Z,6236
2018-07-03T08:08:18.714Z,5960
2018-07-03T08:09:32.331Z,5648
2018-07-03T08:10:47.945Z,5328
2018-07-03T08:12:01.322Z,5016
2018-07-03T08:13:13.635Z,4708
2018-07-03T08:14:25.805Z,4392
2018-07-03T08:15:35.364Z,4148
2018-07-03T08:16:44.513Z,3920
2018-07-03T08:17:53.659Z,3744
2018-07-03T08:19:02.804Z,3572
2018-07-03T08:20:11.868Z,3392
2018-07-03T08:21:20.743Z,3220
2018-07-03T08:22:29.606Z,3008
2018-07-03T08:23:38.496Z,2852
2018-07-03T08:24:47.647Z,2704
2018-07-03T08:25:56.639Z,2572
2018-07-03T08:27:05.504Z,2484
2018-07-03T08:28:14.372Z,2400
2018-07-03T08:29:23.514Z,2332
2018-07-03T08:30:32.382Z,2280
2018-07-03T08:31:41.620Z,2264
2018-07-03T08:32:50.486Z,2240
2018-07-03T08:33:59.374Z,2228
2018-07-03T08:35:08.495Z,2232
2018-07-03T08:36:17.360Z,2160
2018-07-03T08:37:26.856Z,2084
2018-07-03T08:38:35.726Z,2040
2018-07-03T08:39:44.591Z,1972
2018-07-03T08:40:53.457Z,1920
2018-07-03T08:42:02.603Z,1936
2018-07-03T08:43:11.847Z,1896
2018-07-03T08:44:20.709Z,1816
2018-07-03T08:45:29.855Z,1784
2018-07-03T08:46:38.717Z,1772
2018-07-03T08:47:47.582Z,1820
2018-07-03T08:48:57.177Z,1888
2018-07-03T08:50:06.335Z,1964
2018-07-03T08:51:15.194Z,2020
2018-07-03T08:52:24.681Z,2032
2018-07-03T08:53:33.552Z,2048
2018-07-03T08:54:42.770Z,2060
2018-07-03T08:55:51.926Z,2092
2018-07-03T08:57:00.793Z,2132
2018-07-03T08:58:09.673Z,2164
2018-07-03T08:59:18.525Z,2200
2018-07-03T09:00:27.541Z,2248
2018-07-03T09:01:36.687Z,2300
2018-07-03T09:02:45.829Z,2348
2018-07-03T09:03:55.061Z,2364
2018-07-03T09:05:03.925Z,2360
2018-07-03T09:06:12.843Z,2360
2018-07-03T09:07:21.710Z,2356
2018-07-03T09:08:30.575Z,2368
2018-07-03T09:09:39.723Z,2360
2018-07-03T09:10:48.588Z,2352
2018-07-03T09:11:57.696Z,2332
2018-07-03T09:13:07.351Z,2280
2018-07-03T09:14:17.814Z,2220
2018-07-03T09:15:26.839Z,2164
2018-07-03T09:16:35.909Z,2128
2018-07-03T09:17:45.602Z,2088
2018-07-03T09:18:54.655Z,2056
2018-07-03T09:20:03.684Z,2036
2018-07-03T09:21:13.328Z,2028
2018-07-03T09:22:22.691Z,2036
2018-07-03T09:23:33.367Z,2044
2018-07-03T09:24:42.698Z,2048
2018-07-03T09:25:51.738Z,2056
2018-07-03T09:27:01.277Z,2060
2018-07-03T09:28:10.663Z,2064
2018-07-03T09:29:19.841Z,2060
2018-07-03T09:30:29.662Z,2064
2018-07-03T09:31:39.181Z,2060
2018-07-03T09:32:48.569Z,2064
2018-07-03T09:33:57.673Z,2068
2018-07-03T09:35:07.431Z,2076
2018-07-03T09:36:16.958Z,2080
2018-07-03T09:37:25.914Z,2088
2018-07-03T09:38:35.456Z,2096
2018-07-03T09:39:44.536Z,2108
2018-07-03T09:40:53.617Z,2128
2018-07-03T09:42:03.069Z,2144
2018-07-03T09:43:12.816Z,2160
2018-07-03T09:44:22.040Z,2180
2018-07-03T09:45:32.147Z,2212
2018-07-03T09:46:41.600Z,2272
2018-07-03T09:47:51.693Z,2340
2018-07-03T09:49:01.697Z,2384
2018-07-03T09:50:10.749Z,2416
2018-07-03T09:51:19.818Z,2456
2018-07-03T09:52:29.905Z,2492
2018-07-03T09:53:39.351Z,2516
2018-07-03T09:54:48.681Z,2500
2018-07-03T09:55:58.192Z,2448
2018-07-03T09:57:07.617Z,2388
2018-07-03T09:58:17.701Z,2324
2018-07-03T09:59:27.232Z,2268
2018-07-03T10:00:36.356Z,2248
2018-07-03T10:01:45.220Z,2236
2018-07-03T10:02:54.085Z,2232
2018-07-03T10:04:03.560Z,2220
2018-07-03T10:05:12.706Z,2176
2018-07-03T10:06:21.575Z,2084
2018-07-03T10:07:30.441Z,1960
2018-07-03T10:08:39.307Z,2072
2018-07-03T10:09:48.551Z,2336
2018-07-03T10:10:57.973Z,2432
2018-07-03T10:12:06.842Z,2432
2018-07-03T10:13:15.712Z,2420
2018-07-03T10:14:24.587Z,2420
2018-07-03T10:15:33.745Z,2432
2018-07-03T10:16:42.623Z,2460
2018-07-03T10:17:51.781Z,2504
2018-07-03T10:19:00.663Z,2564
2018-07-03T10:20:09.530Z,2624
2018-07-03T10:21:18.998Z,2692
2018-07-03T10:22:27.863Z,2772
2018-07-03T10:23:37.004Z,2872
2018-07-03T10:24:45.871Z,2976
2018-07-03T10:25:54.734Z,3044
2018-07-03T10:27:04.029Z,3020
2018-07-03T10:28:12.893Z,2908
2018-07-03T10:29:22.036Z,2772
2018-07-03T10:30:30.902Z,2672
2018-07-03T10:31:39.766Z,2616
2018-07-03T10:32:48.638Z,2616
2018-07-03T10:33:57.505Z,2636
2018-07-03T10:35:06.376Z,2656
2018-07-03T10:36:15.241Z,2668
2018-07-03T10:37:24.108Z,2688
2018-07-03T10:38:33.325Z,2704
2018-07-03T10:39:42.189Z,2732
2018-07-03T10:40:51.154Z,2780
2018-07-03T10:42:00.025Z,2824
2018-07-03T10:43:09.217Z,2860
2018-07-03T10:44:18.413Z,2860
2018-07-03T10:45:27.288Z,2872
2018-07-03T10:46:36.150Z,2872
2018-07-03T10:47:45.017Z,2872
2018-07-03T10:48:54.486Z,2864
2018-07-03T10:50:03.686Z,2860
2018-07-03T10:51:12.553Z,2868
2018-07-03T10:52:21.417Z,2904
2018-07-03T10:53:30.687Z,2916
2018-07-03T10:54:39.552Z,2920
2018-07-03T10:55:48.520Z,2884
2018-07-03T10:56:57.664Z,2856
2018-07-03T10:58:06.815Z,2856
2018-07-03T10:59:15.692Z,2844
2018-07-03T11:00:24.562Z,2828
2018-07-03T11:01:33.578Z,2812
2018-07-03T11:02:42.452Z,2788
2018-07-03T11:03:51.593Z,2768
2018-07-03T11:05:00.461Z,2784
2018-07-03T11:06:09.607Z,2800
2018-07-03T11:07:18.914Z,2796
2018-07-03T11:08:28.058Z,2792
2018-07-03T11:09:36.921Z,2788
2018-07-03T11:10:45.785Z,2804
2018-07-03T11:11:54.653Z,2836
2018-07-03T11:13:03.623Z,2860
2018-07-03T11:14:12.885Z,2880
2018-07-03T11:15:22.027Z,2912
2018-07-03T11:16:31.484Z,2976
2018-07-03T11:17:40.677Z,3044
2018-07-03T11:18:49.543Z,3052
2018-07-03T11:19:59.045Z,3044
2018-07-03T11:21:08.172Z,3008
2018-07-03T11:22:17.315Z,3000
2018-07-03T11:23:26.181Z,2984
2018-07-03T11:24:35.296Z,2976
2018-07-03T11:25:44.163Z,2976
2018-07-03T11:26:53.031Z,2988
2018-07-03T11:28:01.898Z,2996
2018-07-03T11:29:10.772Z,2996
2018-07-03T11:30:20.040Z,2992
2018-07-03T11:31:28.906Z,2984
2018-07-03T11:32:38.111Z,2992
2018-07-03T11:33:47.798Z,3000
2018-07-03T11:34:57.668Z,3000
2018-07-03T11:36:06.766Z,3040
2018-07-03T11:37:15.633Z,3080
2018-07-03T11:38:24.500Z,3136
2018-07-03T11:39:33.920Z,3200
2018-07-03T11:40:42.872Z,3252
2018-07-03T11:41:51.890Z,3312
2018-07-03T11:43:01.094Z,3372
2018-07-03T11:44:10.286Z,3444
2018-07-03T11:45:19.435Z,3464
2018-07-03T11:46:28.327Z,3440
2018-07-03T11:47:37.226Z,3408
2018-07-03T11:48:46.096Z,3448
2018-07-03T11:49:55.236Z,3536
2018-07-03T11:51:04.100Z,3640
2018-07-03T11:52:13.240Z,3796
2018-07-03T11:53:22.107Z,4000
2018-07-03T11:54:30.975Z,4236
2018-07-03T11:55:39.849Z,4512
2018-07-03T11:56:48.994Z,4784
2018-07-03T11:57:57.859Z,5208
2018-07-03T11:59:07.004Z,7128
2018-07-03T12:00:15.873Z,48128
2018-07-03T12:01:24.776Z,85248
2018-07-03T12:02:33.611Z,80672
2018-07-03T12:03:42.477Z,79104
2018-07-03T12:04:51.344Z,82656
2018-07-03T12:06:00.212Z,83104
2018-07-03T12:07:09.080Z,81600
2018-07-03T12:08:18.225Z,80832
2018-07-03T12:09:27.098Z,80224
2018-07-03T12:10:35.971Z,81184
2018-07-03T12:11:45.120Z,81440
2018-07-03T12:12:54.003Z,83904
2018-07-03T12:14:02.874Z,83456
2018-07-03T12:15:11.750Z,83488
2018-07-03T12:16:20.900Z,84960
2018-07-03T12:17:30.049Z,84928
2018-07-03T12:18:39.174Z,87936
2018-07-03T12:19:48.090Z,85824
2018-07-03T12:20:57.525Z,88320
2018-07-03T12:22:06.679Z,85696
2018-07-03T12:23:16.107Z,80288
2018-07-03T12:24:25.083Z,84384
2018-07-03T12:25:33.967Z,85600
2018-07-03T12:26:42.843Z,84768
2018-07-03T12:27:51.738Z,92544
2018-07-03T12:29:00.682Z,93856
2018-07-03T12:30:09.910Z,88416
2018-07-03T12:31:18.788Z,81696
2018-07-03T12:32:27.663Z,78464
2018-07-03T12:33:38.120Z,78848
2018-07-03T12:34:47.271Z,82944
2018-07-03T12:35:56.203Z,76960
2018-07-03T12:37:05.074Z,83264
2018-07-03T12:38:13.952Z,96928
2018-07-03T12:39:22.827Z,94048
2018-07-03T12:40:31.703Z,88448
2018-07-03T12:41:40.730Z,83648
2018-07-03T12:42:49.606Z,85952
2018-07-03T12:43:58.508Z,81920
2018-07-03T12:45:07.687Z,79328
2018-07-03T12:46:16.564Z,86944
2018-07-03T12:47:25.492Z,93760
2018-07-03T12:48:34.368Z,82816
2018-07-03T12:49:43.248Z,60000
2018-07-03T12:50:52.120Z,57920
2018-07-03T12:52:00.997Z,63136
2018-07-03T12:53:09.924Z,69440
2018-07-03T12:54:18.801Z,57888
2018-07-03T12:55:28.081Z,55648
2018-07-03T12:56:36.919Z,52832
2018-07-03T12:57:45.803Z,51072
2018-07-03T12:58:55.409Z,52928
2018-07-03T13:00:04.566Z,58528
2018-07-03T13:01:13.443Z,67200
2018-07-03T13:02:23.079Z,74816
2018-07-03T13:03:31.906Z,82752
2018-07-03T13:04:41.056Z,82592
2018-07-03T13:05:50.267Z,83168
2018-07-03T13:06:59.159Z,81600
2018-07-03T13:08:08.121Z,81152
2018-07-03T13:09:17.571Z,77760
2018-07-03T13:10:26.601Z,79648
2018-07-03T13:11:35.492Z,83584
2018-07-03T13:12:44.373Z,81248
2018-07-03T13:13:53.253Z,81408
2018-07-03T13:15:02.135Z,80064
2018-07-03T13:16:11.064Z,80256
2018-07-03T13:17:19.953Z,77312
2018-07-03T13:18:28.838Z,83072
2018-07-03T13:19:37.719Z,83776
2018-07-03T13:20:46.600Z,78880
2018-07-03T13:21:55.628Z,83712
2018-07-03T13:23:04.506Z,87520
2018-07-03T13:24:13.385Z,88480
2018-07-03T13:25:22.263Z,86144
2018-07-03T13:26:31.148Z,85024
2018-07-03T13:27:40.662Z,87072
2018-07-03T13:28:49.543Z,86656
2018-07-03T13:29:58.465Z,91712
2018-07-03T13:31:07.307Z,88064
2018-07-03T13:32:16.465Z,84960
2018-07-03T13:33:25.446Z,92608
2018-07-03T13:34:34.608Z,90816
2018-07-03T13:35:44.045Z,88256
2018-07-03T13:36:52.926Z,89408
2018-07-03T13:38:01.812Z,88320
2018-07-03T13:39:11.043Z,87616
2018-07-03T13:40:20.201Z,92992
2018-07-03T13:41:29.084Z,92384
2018-07-03T13:42:37.967Z,90208
2018-07-03T13:43:46.845Z,92672
2018-07-03T13:44:55.724Z,95648
2018-07-03T13:46:04.609Z,92128
2018-07-03T13:47:13.489Z,86144
2018-07-03T13:48:22.904Z,89440
2018-07-03T13:49:32.440Z,90560
2018-07-03T13:50:41.751Z,87968
2018-07-03T13:51:50.636Z,85024
2018-07-03T13:52:59.519Z,84800
2018-07-03T13:54:08.404Z,82688
2018-07-03T13:55:17.285Z,83840
2018-07-03T13:56:26.319Z,86144
2018-07-03T13:57:35.202Z,84448
2018-07-03T13:58:44.635Z,84320
2018-07-03T13:59:53.792Z,85312
2018-07-03T14:01:02.676Z,85920
2018-07-03T14:02:11.726Z,87104
2018-07-03T14:03:20.591Z,91872
2018-07-03T14:04:29.473Z,91776
2018-07-03T14:05:38.369Z,91584
2018-07-03T14:06:47.533Z,92224
2018-07-03T14:07:56.514Z,92448
2018-07-03T14:09:05.398Z,92512
2018-07-03T14:10:15.005Z,88544
2018-07-03T14:11:24.339Z,85536
2018-07-03T14:12:33.566Z,87392
2018-07-03T14:13:43.124Z,89024
2018-07-03T14:14:53.204Z,88096
2018-07-03T14:16:02.474Z,87712
2018-07-03T14:17:11.521Z,90304
2018-07-03T14:18:20.404Z,91008
2018-07-03T14:19:29.633Z,88000
2018-07-03T14:20:38.513Z,81280
2018-07-03T14:21:48.110Z,82240
2018-07-03T14:22:56.921Z,82560
2018-07-03T14:24:05.808Z,76224
2018-07-03T14:25:14.686Z,78400
2018-07-03T14:26:23.568Z,81888
2018-07-03T14:27:32.449Z,80128
2018-07-03T14:28:41.330Z,79488
2018-07-03T14:29:50.211Z,79104
2018-07-03T14:30:59.425Z,78688
2018-07-03T14:32:08.545Z,76864
2018-07-03T14:33:17.426Z,75968
2018-07-03T14:34:26.309Z,75104
2018-07-03T14:35:35.228Z,73504
2018-07-03T14:36:44.161Z,75776
2018-07-03T14:37:53.325Z,78176
2018-07-03T14:39:02.205Z,76992
2018-07-03T14:40:11.373Z,73088
2018-07-03T14:41:20.533Z,71200
2018-07-03T14:42:29.565Z,64864
2018-07-03T14:43:38.444Z,71552
2018-07-03T14:44:47.324Z,73312
2018-07-03T14:45:56.488Z,76608
2018-07-03T14:47:05.643Z,79328
2018-07-03T14:48:14.525Z,79488
2018-07-03T14:49:23.409Z,80160
2018-07-03T14:50:32.613Z,79520
2018-07-03T14:51:41.778Z,78496
2018-07-03T14:52:50.659Z,77504
2018-07-03T14:53:59.541Z,80608
2018-07-03T14:55:08.423Z,82432
2018-07-03T14:56:17.310Z,81312
2018-07-03T14:57:26.465Z,81856
2018-07-03T14:58:35.350Z,82400
2018-07-03T14:59:44.379Z,80320
2018-07-03T15:00:53.283Z,82656
2018-07-03T15:02:02.189Z,81312
2018-07-03T15:03:11.070Z,78592
2018-07-03T15:04:19.953Z,82528
2018-07-03T15:05:28.834Z,83712
2018-07-03T15:06:37.716Z,79136
2018-07-03T15:07:46.878Z,79424
2018-07-03T15:08:56.042Z,79840
2018-07-03T15:10:04.922Z,81280
2018-07-03T15:11:13.806Z,81056
2018-07-03T15:12:22.961Z,79136
2018-07-03T15:13:31.841Z,74144
2018-07-03T15:14:40.997Z,69856
2018-07-03T15:15:49.877Z,75616
2018-07-03T15:16:58.860Z,78176
2018-07-03T15:18:07.739Z,71552
2018-07-03T15:19:16.899Z,74624
2018-07-03T15:20:26.186Z,73888
2018-07-03T15:21:34.991Z,75008
2018-07-03T15:22:44.023Z,75232
2018-07-03T15:23:53.181Z,74688
2018-07-03T15:25:02.064Z,76000
2018-07-03T15:26:10.945Z,77856
2018-07-03T15:27:19.826Z,76000
2018-07-03T15:28:28.710Z,76928
2018-07-03T15:29:37.590Z,79456
2018-07-03T15:30:46.483Z,78944
2018-07-03T15:31:55.378Z,76320